createdAt,value
2018-04-10T00:00:21.395Z,63.53
2018-04-10T00:02:47.054Z,63.65
2018-04-10T00:05:12.751Z,63.65
2018-04-10T00:07:38.438Z,63.65
2018-04-10T00:10:04.107Z,63.68
2018-04-10T00:12:29.791Z,63.74
2018-04-10T00:14:55.465Z,63.81
2018-04-10T00:17:21.122Z,63.87
2018-04-10T00:19:46.838Z,63.97
2018-04-10T00:22:12.525Z,63.92
2018-04-10T00:24:38.171Z,64.02
2018-04-10T00:27:03.867Z,64.16
2018-04-10T00:29:29.534Z,64.27
2018-04-10T00:31:55.920Z,64.35
2018-04-10T00:34:21.845Z,64.39
2018-04-10T00:36:47.508Z,64.45
2018-04-10T00:39:13.166Z,64.52
2018-04-10T00:41:38.841Z,64.56
2018-04-10T00:44:04.809Z,64.68
2018-04-10T00:46:30.465Z,64.71
2018-04-10T00:48:56.448Z,64.72
2018-04-10T00:51:22.163Z,64.77
2018-04-10T00:53:47.886Z,64.82
2018-04-10T00:56:13.550Z,64.93
2018-04-10T00:58:39.244Z,64.97
2018-04-10T01:01:04.913Z,64.92
2018-04-10T01:03:30.594Z,64.90
2018-04-10T01:05:56.348Z,64.86
2018-04-10T01:08:23.005Z,64.90
2018-04-10T01:10:48.695Z,64.83
2018-04-10T01:13:14.347Z,64.84
2018-04-10T01:15:40.056Z,64.86
2018-04-10T01:18:05.738Z,64.91
2018-04-10T01:20:31.686Z,64.85
2018-04-10T01:22:57.339Z,64.86
2018-04-10T01:25:23.019Z,64.92
2018-04-10T01:27:49.143Z,65.09
2018-04-10T01:30:14.785Z,65.07
2018-04-10T01:32:40.453Z,65.00
2018-04-10T01:35:06.106Z,65.01
2018-04-10T01:37:31.775Z,64.93
2018-04-10T01:39:57.443Z,64.99
2018-04-10T01:42:23.137Z,64.98
2018-04-10T01:44:49.099Z,65.20
2018-04-10T01:47:14.812Z,65.15
2018-04-10T01:49:40.530Z,65.35
2018-04-10T01:52:06.202Z,65.38
2018-04-10T01:54:31.878Z,65.46
2018-04-10T01:56:57.542Z,65.56
2018-04-10T01:59:23.214Z,65.67
2018-04-10T02:01:48.885Z,65.72
2018-04-10T02:04:14.546Z,65.81
2018-04-10T02:06:40.215Z,65.88
2018-04-10T02:09:05.990Z,66.13
2018-04-10T02:11:31.654Z,66.20
2018-04-10T02:13:57.314Z,66.22
2018-04-10T02:16:22.999Z,66.22
2018-04-10T02:18:48.673Z,66.23
2018-04-10T02:21:14.708Z,66.35
2018-04-10T02:23:40.394Z,66.48
2018-04-10T02:26:06.074Z,66.68
2018-04-10T02:28:31.760Z,66.85
2018-04-10T02:30:57.419Z,66.91
2018-04-10T02:33:23.085Z,67.03
2018-04-10T02:35:48.737Z,67.10
2018-04-10T02:38:14.419Z,67.23
2018-04-10T02:40:40.095Z,67.17
2018-04-10T02:43:05.753Z,67.42
2018-04-10T02:45:31.409Z,67.42
2018-04-10T02:47:57.463Z,67.58
2018-04-10T02:50:23.130Z,67.58
2018-04-10T02:52:48.800Z,67.73
2018-04-10T02:55:14.459Z,67.89
2018-04-10T02:57:40.126Z,67.92
2018-04-10T03:00:05.774Z,67.96
2018-04-10T03:02:31.475Z,68.04
2018-04-10T03:04:57.138Z,68.15
2018-04-10T03:07:22.809Z,68.03
2018-04-10T03:09:48.469Z,68.00
2018-04-10T03:12:14.157Z,68.17
2018-04-10T03:14:39.798Z,68.22
2018-04-10T03:17:05.457Z,68.20
2018-04-10T03:19:31.149Z,68.13
2018-04-10T03:21:56.815Z,68.06
2018-04-10T03:24:22.482Z,68.09
2018-04-10T03:26:48.167Z,68.11
2018-04-10T03:29:13.865Z,68.14
2018-04-10T03:31:39.532Z,68.43
2018-04-10T03:34:05.195Z,68.51
2018-04-10T03:36:30.901Z,68.54
2018-04-10T03:38:56.586Z,68.57
2018-04-10T03:41:22.237Z,68.66
2018-04-10T03:43:47.912Z,68.73
2018-04-10T03:46:13.570Z,68.85
2018-04-10T03:48:39.545Z,69.04
2018-04-10T03:51:05.206Z,69.02
2018-04-10T03:53:30.927Z,69.20
2018-04-10T03:55:56.595Z,69.22
2018-04-10T03:58:22.257Z,69.14
2018-04-10T04:00:47.914Z,69.12
2018-04-10T04:03:13.577Z,69.20
2018-04-10T04:05:39.225Z,69.13
2018-04-10T04:08:04.911Z,69.27
2018-04-10T04:10:30.569Z,69.23
2018-04-10T04:12:56.244Z,69.31
2018-04-10T04:15:21.906Z,69.39
2018-04-10T04:17:47.585Z,69.43
2018-04-10T04:20:19.266Z,69.40
2018-04-10T04:22:44.929Z,69.40
2018-04-10T04:25:10.608Z,69.25
2018-04-10T04:27:36.279Z,69.02
2018-04-10T04:30:02.285Z,68.97
2018-04-10T04:32:27.944Z,69.13
2018-04-10T04:34:53.614Z,69.12
2018-04-10T04:37:19.292Z,69.14
2018-04-10T04:39:44.946Z,69.43
2018-04-10T04:42:10.651Z,69.70
2018-04-10T04:44:36.347Z,69.44
2018-04-10T04:47:02.055Z,69.64
2018-04-10T04:49:28.023Z,69.71
2018-04-10T04:51:53.939Z,69.87
2018-04-10T04:54:19.599Z,70.05
2018-04-10T04:56:45.270Z,69.86
2018-04-10T04:59:10.942Z,69.77
2018-04-10T05:01:36.634Z,69.75
2018-04-10T05:04:02.287Z,69.76
2018-04-10T05:06:27.950Z,69.86
2018-04-10T05:08:53.659Z,69.73
2018-04-10T05:11:19.311Z,69.88
2018-04-10T05:13:44.985Z,69.72
2018-04-10T05:16:10.643Z,69.53
2018-04-10T05:18:36.311Z,69.34
2018-04-10T05:21:01.983Z,69.24
2018-04-10T05:23:27.664Z,69.04
2018-04-10T05:25:53.333Z,68.68
2018-04-10T05:28:19.007Z,68.18
2018-04-10T05:30:44.666Z,67.92
2018-04-10T05:33:10.327Z,68.07
2018-04-10T05:35:36.022Z,67.88
2018-04-10T05:38:01.667Z,67.92
2018-04-10T05:40:27.336Z,67.69
2018-04-10T05:42:52.994Z,67.62
2018-04-10T05:45:18.652Z,67.24
2018-04-10T05:47:44.306Z,66.90
2018-04-10T05:50:10.001Z,66.49
2018-04-10T05:52:36.130Z,66.23
2018-04-10T05:55:01.786Z,65.86
2018-04-10T05:57:27.491Z,65.74
2018-04-10T05:59:53.170Z,65.88
2018-04-10T06:02:18.841Z,65.60
2018-04-10T06:04:44.510Z,65.59
2018-04-10T06:07:10.240Z,65.48
2018-04-10T06:09:35.914Z,65.37
2018-04-10T06:12:01.567Z,65.23
2018-04-10T06:14:27.280Z,64.84
2018-04-10T06:16:52.935Z,64.46
2018-04-10T06:19:18.636Z,64.18
2018-04-10T06:21:44.298Z,64.18
2018-04-10T06:24:09.973Z,64.41
2018-04-10T06:29:01.218Z,64.15
2018-04-10T06:31:26.898Z,63.84
2018-04-10T06:33:52.559Z,64.02
2018-04-10T06:36:18.226Z,63.89
2018-04-10T06:38:43.946Z,63.78
2018-04-10T06:41:09.615Z,63.74
2018-04-10T06:43:35.575Z,63.48
2018-04-10T06:46:01.312Z,63.24
2018-04-10T06:48:27.223Z,62.96
2018-04-10T06:50:52.903Z,62.79
2018-04-10T06:53:18.571Z,62.70
2018-04-10T06:55:44.274Z,62.69
2018-04-10T06:58:10.013Z,62.67
2018-04-10T07:00:35.687Z,62.57
2018-04-10T07:03:01.387Z,62.11
2018-04-10T07:05:27.042Z,62.05
2018-04-10T07:07:52.752Z,61.86
2018-04-10T07:10:18.402Z,61.62
2018-04-10T07:12:44.143Z,61.58
2018-04-10T07:15:09.823Z,61.38
2018-04-10T07:17:35.495Z,60.76
2018-04-10T07:20:01.174Z,61.13
2018-04-10T07:22:26.853Z,60.65
2018-04-10T07:24:52.524Z,60.89
2018-04-10T07:27:18.202Z,60.77
2018-04-10T07:29:43.886Z,60.73
2018-04-10T07:32:09.550Z,60.57
2018-04-10T07:34:35.241Z,60.31
2018-04-10T07:37:00.890Z,60.11
2018-04-10T07:39:26.563Z,59.98
2018-04-10T07:41:52.230Z,59.66
2018-04-10T07:44:17.939Z,59.40
2018-04-10T07:46:43.610Z,59.16
2018-04-10T07:49:09.287Z,59.03
2018-04-10T07:51:34.978Z,58.95
2018-04-10T07:54:00.661Z,58.72
2018-04-10T07:56:26.322Z,58.26
2018-04-10T07:58:52.015Z,58.06
2018-04-10T08:01:17.687Z,58.06
2018-04-10T08:03:43.346Z,58.19
2018-04-10T08:06:09.031Z,57.81
2018-04-10T08:08:34.726Z,57.84
2018-04-10T08:11:00.374Z,57.53
2018-04-10T08:13:26.445Z,57.23
2018-04-10T08:15:52.107Z,56.99
2018-04-10T08:18:17.794Z,57.08
2018-04-10T08:20:43.463Z,56.78
2018-04-10T08:23:09.189Z,56.76
2018-04-10T08:25:35.107Z,56.33
2018-04-10T08:28:00.773Z,55.94
2018-04-10T08:30:26.441Z,55.46
2018-04-10T08:32:52.124Z,55.47
2018-04-10T08:35:17.788Z,55.60
2018-04-10T08:37:43.460Z,55.75
2018-04-10T08:40:09.132Z,55.33
2018-04-10T08:42:34.818Z,55.03
2018-04-10T08:45:00.632Z,54.68
2018-04-10T08:47:26.323Z,54.64
2018-04-10T08:49:52.197Z,54.53
2018-04-10T08:52:17.858Z,54.70
2018-04-10T08:54:43.642Z,54.17
2018-04-10T08:57:09.315Z,53.96
2018-04-10T08:59:35.034Z,54.24
2018-04-10T09:02:00.706Z,53.65
2018-04-10T09:04:26.384Z,53.32
2018-04-10T09:06:52.063Z,53.70
2018-04-10T09:09:17.763Z,53.56
2018-04-10T09:11:43.408Z,53.60
2018-04-10T09:14:09.100Z,53.27
2018-04-10T09:16:34.979Z,52.92
2018-04-10T09:19:00.670Z,53.20
2018-04-10T09:21:26.335Z,53.12
2018-04-10T09:23:52.051Z,52.84
2018-04-10T09:26:17.723Z,52.53
2018-04-10T09:28:43.366Z,52.90
2018-04-10T09:31:09.059Z,52.28
2018-04-10T09:33:34.738Z,51.99
2018-04-10T09:36:00.400Z,52.50
2018-04-10T09:38:26.072Z,52.36
2018-04-10T09:40:51.787Z,51.58
2018-04-10T09:43:17.451Z,51.55
2018-04-10T09:45:43.166Z,51.48
2018-04-10T09:48:08.864Z,51.02
2018-04-10T09:50:34.538Z,50.81
2018-04-10T09:53:00.200Z,51.10
2018-04-10T09:55:25.875Z,50.89
2018-04-10T09:57:51.533Z,50.61
2018-04-10T10:00:23.439Z,50.33
2018-04-10T10:02:49.116Z,50.19
2018-04-10T10:05:14.819Z,50.12
2018-04-10T10:07:41.398Z,50.04
2018-04-10T10:10:07.082Z,50.01
2018-04-10T10:12:32.726Z,50.14
2018-04-10T10:14:58.578Z,49.91
2018-04-10T10:17:24.251Z,49.49
2018-04-10T10:19:49.987Z,50.02
2018-04-10T10:22:15.635Z,49.70
2018-04-10T10:24:41.356Z,49.25
2018-04-10T10:27:07.018Z,48.97
2018-04-10T10:29:32.718Z,49.04
2018-04-10T10:31:58.387Z,49.21
2018-04-10T10:34:24.046Z,49.30
2018-04-10T10:36:49.711Z,49.35
2018-04-10T10:39:15.378Z,49.45
2018-04-10T10:41:41.197Z,49.17
2018-04-10T10:44:06.881Z,48.97
2018-04-10T10:46:32.579Z,49.39
2018-04-10T10:48:58.336Z,50.00
2018-04-10T10:51:24.029Z,49.98
2018-04-10T10:53:49.695Z,49.88
2018-04-10T10:56:15.362Z,49.88
2018-04-10T10:58:41.027Z,50.12
2018-04-10T11:01:06.742Z,49.77
2018-04-10T11:03:32.387Z,49.46
2018-04-10T11:05:58.073Z,49.41
2018-04-10T11:08:23.767Z,49.58
2018-04-10T11:10:49.698Z,49.53
2018-04-10T11:13:15.396Z,49.67
2018-04-10T11:15:41.439Z,50.01
2018-04-10T11:18:07.142Z,50.49
2018-04-10T11:20:32.857Z,50.42
2018-04-10T11:22:58.534Z,50.42
2018-04-10T11:25:24.235Z,50.42
2018-04-10T11:27:49.904Z,49.68
2018-04-10T11:30:15.626Z,50.18
2018-04-10T11:32:41.295Z,50.22
2018-04-10T11:35:06.974Z,50.91
2018-04-10T11:37:32.664Z,51.37
2018-04-10T11:39:58.315Z,51.05
2018-04-10T11:42:24.197Z,51.12
2018-04-10T11:44:49.939Z,51.49
2018-04-10T11:47:15.645Z,51.69
2018-04-10T11:49:41.315Z,51.66
2018-04-10T11:52:07.002Z,51.64
2018-04-10T11:54:32.689Z,51.86
2018-04-10T11:56:58.347Z,51.75
2018-04-10T11:59:24.010Z,51.81
2018-04-10T12:01:49.954Z,51.68
2018-04-10T12:04:15.626Z,51.24
2018-04-10T12:06:41.303Z,51.43
2018-04-10T12:09:06.989Z,51.53
2018-04-10T12:11:32.650Z,51.79
2018-04-10T12:13:58.304Z,52.27
2018-04-10T12:16:23.986Z,52.51
2018-04-10T12:18:49.661Z,52.32
2018-04-10T12:21:15.359Z,52.51
2018-04-10T12:23:41.006Z,52.77
2018-04-10T12:26:06.699Z,53.27
2018-04-10T12:28:32.366Z,53.19
2018-04-10T12:30:58.039Z,53.11
2018-04-10T12:33:23.698Z,53.05
2018-04-10T12:35:49.371Z,53.39
2018-04-10T12:38:15.034Z,53.39
2018-04-10T12:40:40.702Z,53.05
2018-04-10T12:43:06.383Z,53.11
2018-04-10T12:45:32.043Z,53.01
2018-04-10T12:47:57.848Z,53.21
2018-04-10T12:50:23.634Z,53.26
2018-04-10T12:52:49.589Z,52.66
2018-04-10T12:55:15.273Z,52.73
2018-04-10T12:57:40.950Z,52.55
2018-04-10T13:00:06.616Z,52.58
2018-04-10T13:02:32.283Z,52.73
2018-04-10T13:04:57.948Z,52.91
2018-04-10T13:07:23.618Z,52.54
2018-04-10T13:09:49.281Z,52.59
2018-04-10T13:12:15.207Z,52.87
2018-04-10T13:14:40.882Z,53.07
2018-04-10T13:17:06.855Z,53.07
2018-04-10T13:19:32.511Z,52.66
2018-04-10T13:21:58.212Z,52.24
2018-04-10T13:24:23.883Z,52.00
2018-04-10T13:26:49.547Z,51.98
2018-04-10T13:29:15.215Z,52.57
2018-04-10T13:31:40.894Z,52.64
2018-04-10T13:34:06.565Z,53.00
2018-04-10T13:36:32.271Z,53.25
2018-04-10T13:38:57.929Z,52.92
2018-04-10T13:41:23.638Z,52.72
2018-04-10T13:43:49.450Z,53.20
2018-04-10T13:46:15.127Z,53.46
2018-04-10T13:48:41.137Z,53.33
2018-04-10T13:51:06.800Z,53.47
2018-04-10T13:53:32.451Z,53.85
2018-04-10T13:55:58.170Z,53.26
2018-04-10T13:58:23.843Z,53.42
2018-04-10T14:00:49.534Z,53.77
2018-04-10T14:03:15.271Z,53.30
2018-04-10T14:05:40.922Z,53.95
2018-04-10T14:08:06.624Z,54.48
2018-04-10T14:10:32.336Z,54.45
2018-04-10T14:12:58.018Z,54.60
2018-04-10T14:15:23.688Z,54.11
2018-04-10T14:17:49.438Z,54.02
2018-04-10T14:20:15.118Z,54.51
2018-04-10T14:22:40.792Z,54.15
2018-04-10T14:25:06.482Z,53.74
2018-04-10T14:27:32.163Z,53.61
2018-04-10T14:29:57.823Z,53.26
2018-04-10T14:32:23.754Z,52.74
2018-04-10T14:34:49.474Z,52.98
2018-04-10T14:37:15.176Z,52.58
2018-04-10T14:39:40.850Z,52.67
2018-04-10T14:42:06.546Z,52.55
2018-04-10T14:44:32.234Z,53.24
2018-04-10T14:46:57.951Z,53.16
2018-04-10T14:49:23.806Z,53.43
2018-04-10T14:51:49.506Z,53.59
2018-04-10T14:54:15.194Z,53.71
2018-04-10T14:56:40.862Z,53.29
2018-04-10T14:59:06.558Z,53.94
2018-04-10T15:01:32.867Z,54.07
2018-04-10T15:03:58.541Z,53.69
2018-04-10T15:06:24.215Z,54.30
2018-04-10T15:08:49.882Z,53.93
2018-04-10T15:11:15.558Z,54.47
2018-04-10T15:13:41.241Z,54.51
2018-04-10T15:16:06.901Z,54.59
2018-04-10T15:18:32.826Z,54.70
2018-04-10T15:20:58.524Z,54.78
2018-04-10T15:23:24.207Z,55.19
2018-04-10T15:25:49.879Z,55.08
2018-04-10T15:28:15.556Z,55.79
2018-04-10T15:30:41.208Z,56.10
2018-04-10T15:33:06.897Z,56.09
2018-04-10T15:35:32.682Z,56.31
2018-04-10T15:37:58.391Z,56.51
2018-04-10T15:40:24.082Z,56.99
2018-04-10T15:42:49.741Z,57.20
2018-04-10T15:45:15.391Z,57.55
2018-04-10T15:47:41.095Z,57.75
2018-04-10T15:50:06.791Z,58.04
2018-04-10T15:52:32.470Z,58.15
2018-04-10T15:54:58.155Z,57.96
2018-04-10T15:57:23.831Z,58.19
2018-04-10T15:59:49.510Z,58.46
2018-04-10T16:02:15.179Z,58.85
2018-04-10T16:04:40.834Z,58.68
2018-04-10T16:07:06.710Z,59.44
2018-04-10T16:09:32.380Z,59.55
2018-04-10T16:11:58.071Z,59.52
2018-04-10T16:14:23.801Z,59.22
2018-04-10T16:16:49.502Z,59.18
2018-04-10T16:19:15.190Z,59.62
2018-04-10T16:21:40.857Z,59.92
2018-04-10T16:24:06.568Z,59.94
2018-04-10T16:26:32.270Z,60.05
2018-04-10T16:28:57.920Z,60.12
2018-04-10T16:31:23.622Z,60.03
2018-04-10T16:33:49.306Z,60.30
2018-04-10T16:36:14.973Z,60.62
2018-04-10T16:38:40.694Z,61.43
2018-04-10T16:41:06.372Z,61.74
2018-04-10T16:43:32.073Z,61.83
2018-04-10T16:45:57.767Z,61.58
2018-04-10T16:48:23.482Z,61.64
2018-04-10T16:50:49.130Z,61.81
2018-04-10T16:53:14.806Z,62.01
2018-04-10T16:55:40.461Z,62.01
2018-04-10T16:58:06.169Z,62.21
2018-04-10T17:00:31.827Z,62.24
2018-04-10T17:02:57.512Z,62.77
2018-04-10T17:05:23.178Z,62.90
2018-04-10T17:07:48.990Z,63.42
2018-04-10T17:10:14.670Z,63.52
2018-04-10T17:12:40.415Z,63.66
2018-04-10T17:15:06.093Z,63.81
2018-04-10T17:17:31.798Z,64.03
2018-04-10T17:19:57.491Z,64.35
2018-04-10T17:22:23.203Z,64.63
2018-04-10T17:24:48.936Z,64.88
2018-04-10T17:27:14.725Z,64.99
2018-04-10T17:29:40.396Z,65.15
2018-04-10T17:32:06.274Z,65.50
2018-04-10T17:34:31.944Z,65.63
2018-04-10T17:36:57.650Z,66.10
2018-04-10T17:39:23.335Z,66.47
2018-04-10T17:41:48.997Z,66.49
2018-04-10T17:44:14.698Z,66.35
2018-04-10T17:46:40.412Z,66.31
2018-04-10T17:49:06.233Z,66.92
2018-04-10T17:51:31.906Z,67.03
2018-04-10T17:53:57.598Z,66.61
2018-04-10T17:56:23.283Z,67.15
2018-04-10T17:58:49.150Z,67.61
2018-04-10T18:01:14.818Z,67.70
2018-04-10T18:03:40.563Z,67.80
2018-04-10T18:06:06.224Z,68.64
2018-04-10T18:08:31.906Z,69.10
2018-04-10T18:10:57.660Z,69.00
2018-04-10T18:13:23.370Z,69.01
2018-04-10T18:15:49.061Z,68.95
2018-04-10T18:18:14.734Z,68.79
2018-04-10T18:20:40.383Z,69.00
2018-04-10T18:23:06.082Z,69.50
2018-04-10T18:25:31.750Z,69.89
2018-04-10T18:27:57.630Z,70.33
2018-04-10T18:30:23.303Z,70.68
2018-04-10T18:32:49.274Z,70.92
2018-04-10T18:35:14.970Z,71.19
2018-04-10T18:37:40.658Z,71.63
2018-04-10T18:40:06.361Z,72.25
2018-04-10T18:42:32.097Z,72.61
2018-04-10T18:44:57.793Z,72.85
2018-04-10T18:47:23.874Z,73.07
2018-04-10T18:49:49.721Z,73.24
2018-04-10T18:52:15.387Z,73.32
2018-04-10T18:54:41.088Z,73.32
2018-04-10T18:57:06.752Z,73.17
2018-04-10T18:59:32.448Z,73.01
2018-04-10T19:01:58.119Z,73.01
2018-04-10T19:04:23.799Z,73.57
2018-04-10T19:06:49.474Z,73.96
2018-04-10T19:09:15.165Z,74.10
2018-04-10T19:11:40.869Z,74.01
2018-04-10T19:14:06.544Z,73.88
2018-04-10T19:16:32.210Z,73.63
2018-04-10T19:18:58.086Z,73.34
2018-04-10T19:21:23.755Z,73.83
2018-04-10T19:23:49.414Z,73.98
2018-04-10T19:26:15.214Z,74.01
2018-04-10T19:28:40.902Z,74.15
2018-04-10T19:31:06.570Z,74.31
2018-04-10T19:33:32.254Z,74.45
2018-04-10T19:35:57.971Z,74.47
2018-04-10T19:38:23.651Z,74.71
2018-04-10T19:40:49.369Z,75.03
2018-04-10T19:43:14.986Z,75.01
2018-04-10T19:45:40.698Z,74.53
2018-04-10T19:48:06.383Z,74.38
2018-04-10T19:50:32.247Z,74.29
2018-04-10T19:52:57.906Z,74.37
2018-04-10T19:55:23.601Z,74.63
2018-04-10T19:57:49.262Z,74.53
2018-04-10T20:00:14.948Z,74.28
2018-04-10T20:02:40.647Z,74.08
2018-04-10T20:05:06.341Z,74.15
2018-04-10T20:07:32.005Z,74.37
2018-04-10T20:09:57.926Z,74.52
2018-04-10T20:12:23.594Z,74.53
2018-04-10T20:14:49.258Z,74.47
2018-04-10T20:17:14.939Z,74.39
2018-04-10T20:19:40.633Z,73.84
2018-04-10T20:22:06.302Z,73.96
2018-04-10T20:24:31.986Z,73.93
2018-04-10T20:26:57.946Z,74.04
2018-04-10T20:29:23.659Z,73.74
2018-04-10T20:31:49.344Z,73.76
2018-04-10T20:34:15.004Z,73.69
2018-04-10T20:36:40.663Z,73.90
2018-04-10T20:39:06.382Z,74.12
2018-04-10T20:41:32.045Z,74.13
2018-04-10T20:43:57.730Z,74.18
2018-04-10T20:46:23.378Z,74.29
2018-04-10T20:48:49.140Z,74.26
2018-04-10T20:51:14.808Z,74.48
2018-04-10T20:53:40.498Z,74.09
2018-04-10T20:56:06.177Z,73.86
2018-04-10T20:58:31.894Z,73.79
2018-04-10T21:00:57.548Z,73.99
2018-04-10T21:03:23.346Z,74.27
2018-04-10T21:05:49.020Z,74.46
2018-04-10T21:08:14.701Z,74.29
2018-04-10T21:10:40.379Z,73.99
2018-04-10T21:13:06.068Z,73.50
2018-04-10T21:15:31.730Z,73.39
2018-04-10T21:17:57.390Z,73.35
2018-04-10T21:20:23.302Z,73.13
2018-04-10T21:22:49.001Z,73.28
2018-04-10T21:25:14.842Z,73.63
2018-04-10T21:27:40.506Z,73.49
2018-04-10T21:30:06.229Z,73.31
2018-04-10T21:32:31.882Z,73.41
2018-04-10T21:34:57.619Z,73.47
2018-04-10T21:37:23.282Z,73.27
2018-04-10T21:39:48.958Z,73.09
2018-04-10T21:42:14.610Z,73.53
2018-04-10T21:44:40.278Z,73.64
2018-04-10T21:47:05.938Z,73.88
2018-04-10T21:49:31.943Z,74.26
2018-04-10T21:51:57.590Z,74.06
2018-04-10T21:54:23.278Z,73.89
2018-04-10T21:56:48.939Z,73.56
2018-04-10T21:59:14.623Z,73.71
2018-04-10T22:01:40.354Z,73.91
2018-04-10T22:04:06.067Z,73.76
2018-04-10T22:06:31.882Z,74.09
2018-04-10T22:08:57.542Z,74.36
2018-04-10T22:11:23.194Z,74.47
2018-04-10T22:13:48.862Z,74.45
2018-04-10T22:16:14.545Z,74.52
2018-04-10T22:18:40.202Z,74.39
2018-04-10T22:21:05.949Z,74.04
2018-04-10T22:23:31.610Z,73.68
2018-04-10T22:25:57.826Z,73.65
2018-04-10T22:28:22.973Z,73.85
2018-04-10T22:30:48.684Z,73.84
2018-04-10T22:33:14.315Z,73.89
2018-04-10T22:35:40.028Z,74.11
2018-04-10T22:38:05.704Z,74.05
2018-04-10T22:40:31.416Z,74.41
2018-04-10T22:42:57.085Z,74.69
2018-04-10T22:45:22.783Z,74.74
2018-04-10T22:47:48.455Z,74.57
2018-04-10T22:50:14.435Z,74.38
2018-04-10T22:52:40.129Z,74.57
2018-04-10T22:55:05.796Z,74.61
2018-04-10T22:57:31.461Z,74.36
2018-04-10T22:59:57.128Z,74.42
2018-04-10T23:02:22.806Z,74.18
2018-04-10T23:04:48.467Z,73.90
2018-04-10T23:07:14.252Z,73.92
2018-04-10T23:09:39.941Z,73.80
2018-04-10T23:12:05.641Z,73.69
2018-04-10T23:14:31.296Z,73.79
2018-04-10T23:16:56.984Z,73.66
2018-04-10T23:19:22.699Z,73.72
2018-04-10T23:21:48.427Z,73.63
2018-04-10T23:24:14.099Z,73.49
2018-04-10T23:26:39.868Z,73.53
2018-04-10T23:29:05.539Z,73.53
2018-04-10T23:31:31.410Z,73.57
2018-04-10T23:33:57.098Z,73.55
2018-04-10T23:36:22.831Z,73.52
2018-04-10T23:38:48.482Z,73.71
2018-04-10T23:41:14.154Z,73.58
2018-04-10T23:43:39.834Z,73.83
2018-04-10T23:46:05.550Z,73.93
2018-04-10T23:48:31.287Z,73.96
2018-04-10T23:50:56.948Z,74.05
2018-04-10T23:53:22.644Z,73.92
2018-04-10T23:55:48.295Z,73.81
2018-04-10T23:58:14.336Z,74.03
